^^
Saratoga-Weather Station Historical Data
Daily Summary for July 18, 2021 Units:  English    Metric   Both
Daily Weekly Monthly Yearly Custom
  High: Low: Average:
Temperature: 58.6 °F 38.8 °F 46.4 °F
Dew Point: 51.8 °F 37.8 °F 44.1 °F
Humidity: 98% 76% 92%
Wind Speed: 4mph 0mph 0.3mph
Wind Gust: 7mph - -
Wind- - East
Pressure: 30.3 in 30.2 in -
Precipitation: 0 in    
Historical Graphs
 
 
Tabular Data for July 18, 2021
Time Temperature Dew Point Pressure Wind Wind Speed Wind Gust Humidity Rainfall Rate (Hourly) solar
00:00 43 °F 41.7 °F 30.2 in Calm     95% 0 in 0 W/m2
00:05 43 °F 41.7 °F 30.2 in Calm     95% 0 in 0 W/m2
00:10 43 °F 41.7 °F 30.2 in Calm     95% 0 in 0 W/m2
00:15 42.8 °F 41.5 °F 30.2 in Calm     95% 0 in 0 W/m2
00:20 42.8 °F 41.5 °F 30.2 in Calm     95% 0 in 0 W/m2
00:25 42.6 °F 41.4 °F 30.2 in Calm     95% 0 in 0 W/m2
00:30 42.6 °F 41.4 °F 30.2 in SW 0.9 mph 1 mph 95% 0 in 0 W/m2
00:35 42.6 °F 41.4 °F 30.2 in Calm   1 mph 95% 0 in 0 W/m2
00:40 42.4 °F 41.2 °F 30.2 in Calm   1 mph 95% 0 in 0 W/m2
00:45 42.4 °F 41.2 °F 30.2 in Calm     95% 0 in 0 W/m2
00:50 42.3 °F 41 °F 30.2 in Calm     95% 0 in 0 W/m2
00:55 42.3 °F 41 °F 30.2 in Calm     95% 0 in 0 W/m2
01:00 42.1 °F 40.8 °F 30.2 in Calm     95% 0 in 0 W/m2
01:05 42.1 °F 40.8 °F 30.2 in Calm     95% 0 in 0 W/m2
01:11 42.3 °F 41 °F 30.2 in Calm     95% 0 in 0 W/m2
01:16 42.1 °F 40.8 °F 30.2 in Calm     95% 0 in 0 W/m2
01:21 42.1 °F 40.8 °F 30.2 in Calm     95% 0 in 0 W/m2
01:26 41.7 °F 40.5 °F 30.2 in Calm     95% 0 in 0 W/m2
01:31 41.5 °F 40.3 °F 30.2 in Calm     95% 0 in 0 W/m2
01:36 41.5 °F 40.3 °F 30.2 in Calm     95% 0 in 0 W/m2
01:41 41.4 °F 40.1 °F 30.2 in Calm     95% 0 in 0 W/m2
01:46 41.2 °F 39.9 °F 30.2 in Calm     95% 0 in 0 W/m2
01:51 41 °F 39.7 °F 30.2 in Calm     95% 0 in 0 W/m2
01:56 40.8 °F 39.6 °F 30.2 in Calm     95% 0 in 0 W/m2
02:01 40.8 °F 39.6 °F 30.2 in Calm     95% 0 in 0 W/m2
02:06 40.8 °F 39.6 °F 30.2 in Calm     95% 0 in 0 W/m2
02:11 40.6 °F 39.4 °F 30.2 in Calm     95% 0 in 0 W/m2
02:16 40.6 °F 39.4 °F 30.2 in Calm     95% 0 in 0 W/m2
02:21 40.6 °F 39.4 °F 30.2 in Calm     95% 0 in 0 W/m2
02:26 40.5 °F 39.2 °F 30.2 in Calm     95% 0 in 0 W/m2
02:31 40.3 °F 39 °F 30.2 in Calm     95% 0 in 0 W/m2
02:36 40.1 °F 38.8 °F 30.2 in Calm     95% 0 in 0 W/m2
02:41 39.9 °F 38.7 °F 30.2 in Calm     95% 0 in 0 W/m2
02:46 39.9 °F 38.8 °F 30.2 in Calm     96% 0 in 0 W/m2
02:51 39.9 °F 38.8 °F 30.2 in Calm     96% 0 in 0 W/m2
02:56 39.7 °F 38.5 °F 30.2 in Calm     95% 0 in 0 W/m2
03:01 39.7 °F 38.5 °F 30.2 in Calm     95% 0 in 0 W/m2
03:06 39.7 °F 38.7 °F 30.2 in Calm     96% 0 in 0 W/m2
03:11 39.6 °F 38.5 °F 30.2 in Calm     96% 0 in 0 W/m2
03:16 39.6 °F 38.5 °F 30.2 in Calm     96% 0 in 0 W/m2
03:21 39.6 °F 38.5 °F 30.2 in Calm     96% 0 in 0 W/m2
03:26 39.6 °F 38.5 °F 30.2 in Calm     96% 0 in 0 W/m2
03:31 39.6 °F 38.5 °F 30.2 in Calm     96% 0 in 0 W/m2
03:36 39.6 °F 38.5 °F 30.2 in Calm     96% 0 in 0 W/m2
03:41 39.7 °F 38.7 °F 30.2 in Calm     96% 0 in 0 W/m2
03:46 39.9 °F 38.8 °F 30.2 in Calm     96% 0 in 0 W/m2
03:51 39.9 °F 38.8 °F 30.2 in Calm     96% 0 in 0 W/m2
03:56 39.9 °F 38.8 °F 30.2 in Calm     96% 0 in 0 W/m2
04:01 39.9 °F 38.8 °F 30.2 in Calm     96% 0 in 0 W/m2
04:06 40.1 °F 39 °F 30.2 in Calm     96% 0 in 0 W/m2
04:11 40.3 °F 39.2 °F 30.2 in Calm     96% 0 in 0 W/m2
04:16 40.5 °F 39.4 °F 30.2 in Calm     96% 0 in 0 W/m2
04:21 40.5 °F 39.4 °F 30.2 in Calm     96% 0 in 0 W/m2
04:26 40.6 °F 39.6 °F 30.2 in Calm     96% 0 in 0 W/m2
04:31 40.6 °F 39.6 °F 30.2 in Calm     96% 0 in 0 W/m2
04:36 40.6 °F 39.6 °F 30.2 in Calm     96% 0 in 0 W/m2
04:41 40.8 °F 39.7 °F 30.2 in Calm   1 mph 96% 0 in 0 W/m2
04:46 41 °F 39.9 °F 30.2 in Calm     96% 0 in 0 W/m2
04:51 41 °F 39.9 °F 30.2 in Calm   1 mph 96% 0 in 0 W/m2
04:56 41.2 °F 40.1 °F 30.2 in Calm     96% 0 in 0 W/m2
05:01 41.2 °F 40.1 °F 30.2 in Calm     96% 0 in 0 W/m2
05:06 41.2 °F 40.1 °F 30.2 in Calm   1 mph 96% 0 in 0 W/m2
05:11 41 °F 39.9 °F 30.2 in Calm     96% 0 in 0 W/m2
05:16 40.8 °F 39.7 °F 30.2 in Calm     96% 0 in 0 W/m2
05:21 40.6 °F 39.6 °F 30.2 in Calm     96% 0 in 0 W/m2
05:26 40.6 °F 39.6 °F 30.2 in Calm     96% 0 in 0 W/m2
05:31 40.6 °F 39.6 °F 30.2 in Calm     96% 0 in 0 W/m2
05:36 40.5 °F 39.4 °F 30.2 in Calm     96% 0 in 0 W/m2
05:41 40.5 °F 39.4 °F 30.2 in Calm     96% 0 in 0 W/m2
05:46 40.5 °F 39.4 °F 30.2 in Calm     96% 0 in 0 W/m2
05:51 40.5 °F 39.4 °F 30.2 in Calm     96% 0 in 0 W/m2
05:56 40.5 °F 39.4 °F 30.2 in Calm     96% 0 in 0 W/m2
06:01 40.5 °F 39.4 °F 30.2 in Calm     96% 0 in 0 W/m2
06:07 40.5 °F 39.4 °F 30.2 in Calm   1 mph 96% 0 in 0 W/m2
06:12 40.6 °F 39.6 °F 30.2 in Calm     96% 0 in 0 W/m2
06:17 40.5 °F 39.4 °F 30.2 in Calm   2 mph 96% 0 in 0 W/m2
06:22 40.3 °F 39.2 °F 30.2 in Calm     96% 0 in 0 W/m2
06:27 40.3 °F 39.2 °F 30.2 in Calm   2 mph 96% 0 in 0 W/m2
06:32 40.3 °F 39.2 °F 30.2 in Calm     96% 0 in 0 W/m2
06:37 40.3 °F 39.2 °F 30.2 in Calm     96% 0 in 0 W/m2
06:42 40.1 °F 39 °F 30.2 in Calm     96% 0 in 0 W/m2
06:47 40.1 °F 39 °F 30.2 in Calm     96% 0 in 0 W/m2
06:52 39.9 °F 38.8 °F 30.2 in Calm     96% 0 in 0 W/m2
06:57 39.9 °F 38.8 °F 30.2 in Calm     96% 0 in 0 W/m2
07:02 39.7 °F 38.7 °F 30.2 in Calm     96% 0 in 0 W/m2
07:07 39.7 °F 38.7 °F 30.2 in Calm     96% 0 in 0 W/m2
07:12 39.6 °F 38.5 °F 30.2 in Calm     96% 0 in 0 W/m2
07:17 39.6 °F 38.5 °F 30.2 in Calm     96% 0 in 0 W/m2
07:22 39.4 °F 38.3 °F 30.2 in Calm     96% 0 in 0 W/m2
07:27 39.4 °F 38.3 °F 30.2 in Calm     96% 0 in 0 W/m2
07:32 39.4 °F 38.3 °F 30.2 in NNE 0.9 mph 2 mph 96% 0 in 0 W/m2
07:37 39.2 °F 38.1 °F 30.2 in NNE 0.9 mph 1 mph 96% 0 in 0 W/m2
07:42 39 °F 37.9 °F 30.2 in Calm   2 mph 96% 0 in 0 W/m2
07:47 39 °F 37.9 °F 30.2 in Calm   1 mph 96% 0 in 0 W/m2
07:52 38.8 °F 37.8 °F 30.2 in Calm   1 mph 96% 0 in 0 W/m2
07:57 38.8 °F 37.8 °F 30.2 in Calm     96% 0 in 0 W/m2
08:02 38.8 °F 37.8 °F 30.2 in Calm     96% 0 in 0 W/m2
08:07 38.8 °F 38.1 °F 30.2 in Calm     97% 0 in 0 W/m2
08:12 38.8 °F 38.1 °F 30.2 in Calm     97% 0 in 5 W/m2
08:17 38.8 °F 38.1 °F 30.2 in Calm     97% 0 in 7 W/m2
08:22 38.8 °F 38.1 °F 30.2 in Calm     97% 0 in 9 W/m2
08:27 38.8 °F 38.1 °F 30.2 in Calm     97% 0 in 11 W/m2
08:32 38.8 °F 38.1 °F 30.2 in Calm     97% 0 in 16 W/m2
08:37 38.8 °F 38.1 °F 30.2 in Calm     97% 0 in 21 W/m2
08:42 38.8 °F 38.1 °F 30.2 in ENE 0.9 mph 1 mph 97% 0 in 28 W/m2
08:47 38.8 °F 38.1 °F 30.2 in Calm     97% 0 in 30 W/m2
08:52 38.8 °F 38.1 °F 30.2 in Calm   1 mph 97% 0 in 28 W/m2
08:57 38.8 °F 38.1 °F 30.2 in Calm     97% 0 in 37 W/m2
09:02 38.8 °F 38.1 °F 30.2 in Calm     97% 0 in 39 W/m2
09:07 38.8 °F 38.1 °F 30.2 in Calm   1 mph 97% 0 in 40 W/m2
09:12 39 °F 38.3 °F 30.2 in Calm   2 mph 97% 0 in 46 W/m2
09:17 39 °F 38.3 °F 30.2 in ENE 0.9 mph 2 mph 97% 0 in 40 W/m2
09:22 39.2 °F 38.5 °F 30.3 in Calm   2 mph 97% 0 in 54 W/m2
09:27 39.2 °F 38.5 °F 30.3 in ESE 0.9 mph 1 mph 97% 0 in 58 W/m2
09:32 39.4 °F 38.7 °F 30.3 in Calm     97% 0 in 74 W/m2
09:37 39.4 °F 38.7 °F 30.3 in Calm   2 mph 97% 0 in 67 W/m2
09:42 39.4 °F 38.7 °F 30.3 in Calm   1 mph 97% 0 in 69 W/m2
09:47 39.6 °F 38.8 °F 30.3 in East 2 mph 2 mph 97% 0 in 74 W/m2
09:52 39.6 °F 38.8 °F 30.3 in Calm   2 mph 97% 0 in 79 W/m2
09:57 39.7 °F 39 °F 30.3 in Calm   2 mph 97% 0 in 79 W/m2
10:02 39.7 °F 39 °F 30.3 in Calm   1 mph 97% 0 in 83 W/m2
10:07 39.7 °F 39 °F 30.3 in Calm   2 mph 97% 0 in 74 W/m2
10:12 39.7 °F 39 °F 30.3 in East 0.9 mph 1 mph 97% 0 in 107 W/m2
10:17 39.7 °F 39 °F 30.3 in Calm     97% 0 in 91 W/m2
10:22 39.9 °F 39.2 °F 30.3 in East 0.9 mph 1 mph 97% 0 in 113 W/m2
10:27 40.3 °F 39.6 °F 30.3 in ENE 0.9 mph 2 mph 97% 0 in 114 W/m2
10:32 40.3 °F 39.6 °F 30.3 in Calm     97% 0 in 113 W/m2
10:37 40.5 °F 39.7 °F 30.3 in ENE 0.9 mph 1 mph 97% 0 in 113 W/m2
10:42 40.6 °F 39.9 °F 30.3 in Calm   1 mph 97% 0 in 111 W/m2
10:47 40.8 °F 40.1 °F 30.3 in NE 0.9 mph 2 mph 97% 0 in 127 W/m2
10:52 41.2 °F 40.5 °F 30.3 in Calm     97% 0 in 134 W/m2
10:57 41.2 °F 40.5 °F 30.3 in NE 0.9 mph 2 mph 97% 0 in 137 W/m2
11:02 41.4 °F 40.6 °F 30.3 in Calm     97% 0 in 125 W/m2
11:07 41.5 °F 40.8 °F 30.3 in Calm   2 mph 97% 0 in 160 W/m2
11:12 41.7 °F 41 °F 30.3 in Calm   1 mph 97% 0 in 200 W/m2
11:17 42.1 °F 41.4 °F 30.3 in Calm     97% 0 in 193 W/m2
11:22 42.1 °F 41.4 °F 30.3 in ENE 0.9 mph 2 mph 97% 0 in 193 W/m2
11:27 42.3 °F 41.5 °F 30.3 in Calm   3 mph 97% 0 in 239 W/m2
11:32 42.4 °F 41.7 °F 30.3 in Calm   1 mph 97% 0 in 156 W/m2
11:37 42.6 °F 41.9 °F 30.3 in Calm   2 mph 97% 0 in 387 W/m2
11:42 43.3 °F 42.6 °F 30.3 in NE 2 mph 3 mph 97% 0 in 431 W/m2
11:47 43.9 °F 43.2 °F 30.3 in NNE 0.9 mph 3 mph 97% 0 in 167 W/m2
11:52 44.1 °F 43.3 °F 30.3 in Calm   2 mph 97% 0 in 98 W/m2
11:57 44.4 °F 43.7 °F 30.3 in SE 0.9 mph 3 mph 97% 0 in 111 W/m2
12:02 44.4 °F 43.7 °F 30.3 in ESE 0.9 mph 3 mph 97% 0 in 130 W/m2
12:07 44.8 °F 44.1 °F 30.3 in SE 2 mph 3 mph 97% 0 in 139 W/m2
12:12 45.3 °F 44.6 °F 30.3 in NE 4 mph 5 mph 97% 0 in 156 W/m2
12:17 45.7 °F 45.1 °F 30.2 in ENE 2.9 mph 4 mph 98% 0 in 172 W/m2
12:22 46 °F 45.3 °F 30.3 in East 2 mph 5 mph 97% 0 in 192 W/m2
12:27 46.4 °F 45.9 °F 30.3 in Calm   2 mph 98% 0 in 220 W/m2
12:32 46.8 °F 46.2 °F 30.3 in East 0.9 mph 4 mph 98% 0 in 257 W/m2
12:37 47.3 °F 46.6 °F 30.3 in ENE 2 mph 2 mph 97% 0 in 214 W/m2
12:42 47.8 °F 46.9 °F 30.2 in ENE 2 mph 4 mph 97% 0 in 204 W/m2
12:47 48.4 °F 47.5 °F 30.2 in Calm   2 mph 97% 0 in 209 W/m2
12:52 48.7 °F 47.7 °F 30.2 in East 0.9 mph 4 mph 96% 0 in 239 W/m2
12:57 49.3 °F 48.2 °F 30.2 in ENE 0.9 mph 4 mph 96% 0 in 257 W/m2
13:02 49.8 °F 48.2 °F 30.2 in ENE 2 mph 3 mph 94% 0 in 251 W/m2
13:07 50.2 °F 48 °F 30.2 in ESE 2.9 mph 3 mph 92% 0 in 153 W/m2
13:12 50.5 °F 47.7 °F 30.2 in East 2 mph 3 mph 90% 0 in 146 W/m2
13:17 50.9 °F 47.5 °F 30.2 in East 2 mph 3 mph 88% 0 in 139 W/m2
13:22 51.3 °F 47.5 °F 30.2 in NE 2 mph 3 mph 87% 0 in 149 W/m2
13:27 51.6 °F 47.5 °F 30.2 in East 0.9 mph 3 mph 86% 0 in 176 W/m2
13:32 52.2 °F 47.8 °F 30.2 in ESE 2 mph 3 mph 85% 0 in 179 W/m2
13:37 52.5 °F 47.8 °F 30.2 in East 0.9 mph 3 mph 84% 0 in 178 W/m2
13:42 52.9 °F 48.2 °F 30.2 in ESE 2 mph 3 mph 84% 0 in 155 W/m2
13:47 53.1 °F 48 °F 30.2 in ENE 2 mph 3 mph 83% 0 in 132 W/m2
13:52 53.2 °F 48.2 °F 30.2 in Calm   3 mph 83% 0 in 113 W/m2
13:57 53.6 °F 48.2 °F 30.2 in Calm   3 mph 82% 0 in 116 W/m2
14:02 54 °F 48.6 °F 30.2 in ESE 2.9 mph 6 mph 82% 0 in 127 W/m2
14:07 54.3 °F 48.9 °F 30.2 in East 2 mph 6 mph 82% 0 in 141 W/m2
14:12 54.5 °F 48.7 °F 30.2 in NNE 2 mph 4 mph 81% 0 in 121 W/m2
14:17 54.7 °F 48.9 °F 30.2 in East 0.9 mph 6 mph 81% 0 in 109 W/m2
14:22 54.9 °F 48.7 °F 30.2 in ESE 2 mph 7 mph 80% 0 in 95 W/m2
14:27 55.2 °F 49.1 °F 30.2 in SE 2 mph 2 mph 80% 0 in 74 W/m2
14:32 55.2 °F 49.1 °F 30.2 in ESE 2 mph 7 mph 80% 0 in 63 W/m2
14:37 55.6 °F 49.5 °F 30.2 in East 0.9 mph 2 mph 80% 0 in 65 W/m2
14:43 55.6 °F 49.5 °F 30.2 in North 0.9 mph 2 mph 80% 0 in 70 W/m2
14:48 55.8 °F 49.6 °F 30.2 in East 2.9 mph 4 mph 80% 0 in 69 W/m2
14:53 55.9 °F 49.8 °F 30.2 in West 2 mph 2 mph 80% 0 in 79 W/m2
14:58 55.9 °F 49.8 °F 30.2 in Calm   2 mph 80% 0 in 98 W/m2
15:03 56.1 °F 50 °F 30.2 in Calm   2 mph 80% 0 in 102 W/m2
15:08 56.5 °F 50.4 °F 30.2 in Calm   3 mph 80% 0 in 118 W/m2
15:13 56.7 °F 50.5 °F 30.2 in ENE 0.9 mph 1 mph 80% 0 in 134 W/m2
15:18 56.7 °F 50.2 °F 30.2 in Calm   1 mph 79% 0 in 153 W/m2
15:23 56.8 °F 50.7 °F 30.2 in South 0.9 mph 3 mph 80% 0 in 183 W/m2
15:28 57 °F 50.9 °F 30.2 in Calm     80% 0 in 193 W/m2
15:33 57.2 °F 51.1 °F 30.2 in South 0.9 mph 1 mph 80% 0 in 188 W/m2
15:38 57.6 °F 51.1 °F 30.2 in Calm   1 mph 79% 0 in 185 W/m2
15:43 57.7 °F 50.5 °F 30.2 in Calm   2 mph 77% 0 in 188 W/m2
15:48 57.9 °F 50.7 °F 30.2 in Calm   1 mph 77% 0 in 188 W/m2
15:53 58.3 °F 51.4 °F 30.2 in Calm   2 mph 78% 0 in 176 W/m2
15:58 58.5 °F 50.9 °F 30.2 in East 2.9 mph 6 mph 76% 0 in 163 W/m2
16:03 58.5 °F 51.6 °F 30.2 in ENE 2 mph 3 mph 78% 0 in 158 W/m2
16:08 58.6 °F 51.8 °F 30.2 in SSE 0.9 mph 2 mph 78% 0 in 153 W/m2
16:13 58.6 °F 51.1 °F 30.2 in SE 0.9 mph 4 mph 76% 0 in 151 W/m2
16:18 58.5 °F 50.9 °F 30.2 in SSW 0.9 mph 2 mph 76% 0 in 160 W/m2
16:23 58.6 °F 51.4 °F 30.2 in Calm   4 mph 77% 0 in 156 W/m2
16:28 58.5 °F 51.3 °F 30.2 in SSE 0.9 mph 3 mph 77% 0 in 148 W/m2
16:33 58.5 °F 50.9 °F 30.2 in Calm   1 mph 76% 0 in 146 W/m2
16:38 58.6 °F 51.4 °F 30.2 in Calm   2 mph 77% 0 in 142 W/m2
16:43 58.6 °F 51.4 °F 30.2 in Calm   4 mph 77% 0 in 146 W/m2
16:48 58.6 °F 51.1 °F 30.2 in East 0.9 mph 4 mph 76% 0 in 139 W/m2
16:53 58.5 °F 50.9 °F 30.2 in Calm   3 mph 76% 0 in 104 W/m2
16:58 58.5 °F 51.3 °F 30.2 in Calm   2 mph 77% 0 in 79 W/m2
17:03 58.3 °F 51.1 °F 30.2 in Calm   2 mph 77% 0 in 69 W/m2
17:08 58.1 °F 51.3 °F 30.2 in Calm   1 mph 78% 0 in 65 W/m2
17:13 57.7 °F 51.3 °F 30.2 in Calm     79% 0 in 63 W/m2
17:18 57.6 °F 51.4 °F 30.2 in Calm     80% 0 in 56 W/m2
17:23 57.2 °F 51.4 °F 30.2 in Calm     81% 0 in 51 W/m2
17:28 56.8 °F 51.4 °F 30.2 in Calm     82% 0 in 49 W/m2
17:33 56.5 °F 51.4 °F 30.2 in Calm     83% 0 in 47 W/m2
17:38 56.1 °F 51.4 °F 30.2 in Calm     84% 0 in 44 W/m2
17:43 55.8 °F 51.1 °F 30.2 in Calm     84% 0 in 40 W/m2
17:48 55.6 °F 51.1 °F 30.2 in Calm     85% 0 in 39 W/m2
17:53 55.2 °F 51.1 °F 30.2 in Calm     86% 0 in 40 W/m2
17:58 55 °F 50.9 °F 30.2 in Calm     86% 0 in 37 W/m2
18:03 54.9 °F 51.1 °F 30.2 in Calm     87% 0 in 30 W/m2
18:08 54.7 °F 50.9 °F 30.2 in Calm   2 mph 87% 0 in 26 W/m2
18:13 54.3 °F 50.5 °F 30.2 in NE 0.9 mph 1 mph 87% 0 in 21 W/m2
18:18 54.1 °F 50.7 °F 30.2 in Calm   2 mph 88% 0 in 14 W/m2
18:23 54 °F 50.5 °F 30.2 in Calm     88% 0 in 11 W/m2
18:28 53.8 °F 50.4 °F 30.2 in Calm     88% 0 in 5 W/m2
18:33 53.6 °F 50.2 °F 30.2 in Calm     88% 0 in 0 W/m2
18:38 53.4 °F 50.2 °F 30.2 in Calm     89% 0 in 0 W/m2
18:43 53.2 °F 50 °F 30.2 in Calm   3 mph 89% 0 in 0 W/m2
18:48 53.2 °F 50.4 °F 30.2 in Calm   2 mph 90% 0 in 0 W/m2
18:53 53.1 °F 50.2 °F 30.2 in NE 2.9 mph 3 mph 90% 0 in 0 W/m2
18:58 53.1 °F 50.2 °F 30.2 in Calm   1 mph 90% 0 in 0 W/m2
19:03 53.1 °F 50.2 °F 30.2 in Calm     90% 0 in 0 W/m2
19:08 52.9 °F 50 °F 30.2 in Calm   1 mph 90% 0 in 0 W/m2
19:13 52.9 °F 50 °F 30.2 in Calm   1 mph 90% 0 in 0 W/m2
19:18 52.9 °F 50 °F 30.2 in SE 0.9 mph 1 mph 90% 0 in 0 W/m2
19:23 52.5 °F 49.6 °F 30.2 in Calm     90% 0 in 0 W/m2
19:28 52.3 °F 49.5 °F 30.2 in Calm     90% 0 in 0 W/m2
19:33 52.2 °F 49.3 °F 30.2 in Calm   1 mph 90% 0 in 0 W/m2
19:38 52 °F 49.1 °F 30.2 in Calm     90% 0 in 0 W/m2
19:43 51.6 °F 48.7 °F 30.2 in Calm     90% 0 in 0 W/m2
19:48 51.4 °F 48.9 °F 30.2 in Calm     91% 0 in 0 W/m2
19:53 51.3 °F 48.7 °F 30.2 in Calm     91% 0 in 0 W/m2
19:58 51.3 °F 48.7 °F 30.2 in SE 0.9 mph 1 mph 91% 0 in 0 W/m2
20:03 51.1 °F 48.9 °F 30.2 in Calm   1 mph 92% 0 in 0 W/m2
20:08 50.7 °F 48.6 °F 30.2 in Calm     92% 0 in 0 W/m2
20:13 50.7 °F 48.6 °F 30.2 in Calm     92% 0 in 0 W/m2
20:18 50.5 °F 48.4 °F 30.2 in Calm     92% 0 in 0 W/m2
20:23 50.4 °F 48.4 °F 30.2 in Calm   1 mph 93% 0 in 0 W/m2
20:28 50.4 °F 48.4 °F 30.2 in Calm     93% 0 in 0 W/m2
20:33 50.2 °F 48.2 °F 30.2 in Calm   1 mph 93% 0 in 0 W/m2
20:38 50.2 °F 48.2 °F 30.2 in Calm     93% 0 in 0 W/m2
20:43 50.2 °F 48.6 °F 30.2 in Calm     94% 0 in 0 W/m2
20:48 50.2 °F 48.6 °F 30.2 in Calm     94% 0 in 0 W/m2
20:53 49.8 °F 48.2 °F 30.2 in Calm     94% 0 in 0 W/m2
20:58 49.8 °F 48.2 °F 30.2 in Calm     94% 0 in 0 W/m2
21:03 49.6 °F 48 °F 30.2 in Calm     94% 0 in 0 W/m2
21:08 49.6 °F 48 °F 30.2 in Calm     94% 0 in 0 W/m2
21:13 49.6 °F 48 °F 30.2 in Calm     94% 0 in 0 W/m2
21:18 49.5 °F 47.8 °F 30.2 in Calm     94% 0 in 0 W/m2
21:23 49.5 °F 47.8 °F 30.2 in Calm     94% 0 in 0 W/m2
21:28 49.3 °F 47.7 °F 30.2 in Calm     94% 0 in 0 W/m2
21:33 49.3 °F 47.7 °F 30.2 in Calm     94% 0 in 0 W/m2
21:38 48.9 °F 47.3 °F 30.2 in Calm     94% 0 in 0 W/m2
21:43 48.9 °F 47.3 °F 30.2 in Calm     94% 0 in 0 W/m2
21:48 48.9 °F 47.3 °F 30.2 in Calm     94% 0 in 0 W/m2
21:53 48.7 °F 47.3 °F 30.2 in Calm     95% 0 in 0 W/m2
21:58 48.7 °F 47.3 °F 30.2 in Calm     95% 0 in 0 W/m2
22:03 48.6 °F 47.1 °F 30.2 in Calm     95% 0 in 0 W/m2
22:08 48.6 °F 46.9 °F 30.2 in Calm     94% 0 in 0 W/m2
22:13 48.4 °F 46.8 °F 30.2 in Calm     94% 0 in 0 W/m2
22:18 48.2 °F 46.8 °F 30.2 in Calm     95% 0 in 0 W/m2
22:23 48 °F 46.6 °F 30.2 in Calm     95% 0 in 0 W/m2
22:28 48 °F 46.6 °F 30.2 in Calm     95% 0 in 0 W/m2
22:33 48 °F 46.6 °F 30.2 in Calm     95% 0 in 0 W/m2
22:38 48 °F 46.6 °F 30.2 in Calm     95% 0 in 0 W/m2
22:44 48 °F 46.6 °F 30.2 in Calm     95% 0 in 0 W/m2
22:49 47.8 °F 46.4 °F 30.2 in Calm     95% 0 in 0 W/m2
22:54 47.8 °F 46.4 °F 30.2 in Calm     95% 0 in 0 W/m2
22:59 47.8 °F 46.4 °F 30.2 in Calm     95% 0 in 0 W/m2
23:04 47.7 °F 46.2 °F 30.2 in Calm     95% 0 in 0 W/m2
23:09 47.7 °F 46.2 °F 30.2 in Calm     95% 0 in 0 W/m2
23:14 47.5 °F 46 °F 30.2 in Calm     95% 0 in 0 W/m2
23:19 47.5 °F 46 °F 30.2 in Calm     95% 0 in 0 W/m2
23:24 47.3 °F 45.9 °F 30.2 in Calm     95% 0 in 0 W/m2
23:29 47.3 °F 45.9 °F 30.2 in Calm     95% 0 in 0 W/m2
23:34 47.1 °F 45.7 °F 30.2 in Calm     95% 0 in 0 W/m2
23:39 46.9 °F 45.5 °F 30.2 in Calm     95% 0 in 0 W/m2
23:44 46.9 °F 45.5 °F 30.2 in Calm     95% 0 in 0 W/m2
23:49 46.8 °F 45.3 °F 30.2 in Calm     95% 0 in 0 W/m2
23:54 46.8 °F 45.3 °F 30.2 in Calm     95% 0 in 0 W/m2
23:59 46.6 °F 45.1 °F 30.2 in Calm     95% 0 in 0 W/m2
Juneau County Weather
Compliments of Weather Underground - 4 mb